Time;durP1;ratioP1;P1;durP2;ratioP2;P2;SDS_P1;SDS_P2;PMS_P1;PMS_P2;Temp;Humidity;BMP_temperature;BMP_pressure;BME280_temperature;BME280_humidity;BME280_pressure;Samples;Min_cycle;Max_cycle;Signal;HPM_P1;HPM_P2
2021/06/22 00:02:19;;;;;;;19.38;11.40;;;589.10;2432.00;;;;;;5056897;28;20024;-80
2021/06/22 00:04:45;;;;;;;18.30;12.73;;;589.20;2432.00;;;;;;5070762;28;20097;-78
2021/06/22 00:07:14;;;;;;;17.40;11.80;;;589.00;2432.00;;;;;;5076722;28;20471;-79
2021/06/22 00:09:41;;;;;;;19.80;11.98;;;589.00;2432.00;;;;;;5059043;28;20021;-78
2021/06/22 00:12:08;;;;;;;20.60;11.35;;;564.10;2432.00;;;;;;5058854;28;20029;-79
2021/06/22 00:14:34;;;;;;;15.20;11.18;;;588.80;2432.00;;;;;;5058290;28;20024;-80
2021/06/22 00:16:59;;;;;;;25.15;11.52;;;588.90;2432.00;;;;;;5058039;28;20017;-78
2021/06/22 00:19:25;;;;;;;20.08;11.57;;;588.80;2432.00;;;;;;5076914;28;20032;-78
2021/06/22 00:21:51;;;;;;;17.00;10.38;;;588.90;2432.00;;;;;;5058435;28;20028;-80
2021/06/22 00:24:17;;;;;;;19.63;10.35;;;589.00;2432.00;;;;;;5058449;28;20023;-79
2021/06/22 00:26:43;;;;;;;16.45;9.93;;;564.10;2432.00;;;;;;5058368;28;20035;-80
2021/06/22 00:29:08;;;;;;;17.45;10.30;;;564.10;2432.00;;;;;;5058428;28;20025;-80
2021/06/22 00:31:34;;;;;;;18.52;10.05;;;564.00;2432.00;;;;;;5076624;28;20024;-80
2021/06/22 00:34:00;;;;;;;15.65;10.07;;;564.00;2432.00;;;;;;5058114;28;20410;-79
2021/06/22 00:36:26;;;;;;;17.17;10.93;;;564.00;2432.00;;;;;;5076093;28;20017;-79
2021/06/22 00:38:51;;;;;;;18.05;10.93;;;564.00;2432.00;;;;;;5058371;28;20024;-79
2021/06/22 00:41:19;;;;;;;18.52;10.43;;;563.90;2432.00;;;;;;5058088;28;20020;-79
2021/06/22 00:43:45;;;;;;;18.98;10.82;;;563.80;2432.00;;;;;;5076522;28;20095;-80
2021/06/22 00:46:10;;;;;;;17.10;10.55;;;563.60;2432.00;;;;;;5058274;28;20442;-80
2021/06/22 00:48:36;;;;;;;21.67;11.50;;;563.60;2432.00;;;;;;5057878;28;20031;-79
2021/06/22 00:51:02;;;;;;;17.98;10.90;;;563.60;2432.00;;;;;;5058186;28;20024;-81
2021/06/22 00:53:28;;;;;;;21.65;10.68;;;563.50;2432.00;;;;;;5058111;28;20452;-79
2021/06/22 00:55:55;;;;;;;22.05;10.35;;;563.60;2432.00;;;;;;5075930;28;20086;-80
2021/06/22 00:58:22;;;;;;;19.92;11.75;;;563.40;2432.00;;;;;;5076205;28;20101;-79
2021/06/22 01:00:48;;;;;;;22.88;11.57;;;563.40;2432.00;;;;;;5057741;28;20028;-79
2021/06/22 01:03:14;;;;;;;18.90;10.93;;;563.40;2432.00;;;;;;5057373;28;20037;-78
2021/06/22 01:05:39;;;;;;;23.17;10.98;;;563.40;2432.00;;;;;;5057879;28;20025;-80
2021/06/22 01:08:05;;;;;;;23.73;11.70;;;563.30;2432.00;;;;;;5057794;28;20337;-79
2021/06/22 01:10:31;;;;;;;21.48;11.43;;;538.40;2406.40;;;;;;5057443;28;20016;-79
2021/06/22 01:12:57;;;;;;;19.02;11.50;;;563.30;2432.00;;;;;;5057567;28;20024;-79
2021/06/22 01:15:26;;;;;;;16.63;10.65;;;563.30;2432.00;;;;;;5057642;28;20056;-78
2021/06/22 01:17:54;;;;;;;22.38;10.68;;;563.20;2432.00;;;;;;5075379;28;20044;-78
2021/06/22 01:20:22;;;;;;;20.27;11.52;;;563.30;2432.00;;;;;;5075449;28;20024;-78
2021/06/22 01:22:48;;;;;;;22.33;10.85;;;563.40;2432.00;;;;;;5075237;28;20032;-78
2021/06/22 01:25:15;;;;;;;21.10;10.63;;;563.50;2432.00;;;;;;5057486;28;20020;-80
2021/06/22 01:27:42;;;;;;;22.83;10.75;;;563.50;2432.00;;;;;;5056615;28;20410;-79
2021/06/22 01:30:08;;;;;;;18.45;11.48;;;563.30;2432.00;;;;;;5057210;28;20092;-82
2021/06/22 01:32:35;;;;;;;25.05;11.73;;;563.50;2432.00;;;;;;5057141;28;20452;-82
2021/06/22 01:35:01;;;;;;;18.60;11.38;;;563.30;2432.00;;;;;;5056952;28;20025;-79
2021/06/22 01:37:27;;;;;;;19.42;11.35;;;563.30;2432.00;;;;;;5056870;28;20550;-78
2021/06/22 01:39:53;;;;;;;23.30;12.15;;;563.50;2432.00;;;;;;5056980;28;20448;-78
2021/06/22 01:42:19;;;;;;;22.13;11.18;;;563.30;2432.00;;;;;;5056642;28;20053;-79
2021/06/22 01:44:52;;;;;;;21.40;11.93;;;563.20;2432.00;;;;;;5056049;28;20016;-77
2021/06/22 01:47:18;;;;;;;25.40;12.13;;;563.20;2432.00;;;;;;5056548;28;20023;-81
2021/06/22 01:49:44;;;;;;;20.85;12.63;;;563.20;2432.00;;;;;;5074999;28;20017;-81
2021/06/22 01:52:13;;;;;;;26.55;12.52;;;538.50;2406.40;;;;;;5056361;28;20090;-78
2021/06/22 01:54:39;;;;;;;24.10;11.18;;;563.20;2432.00;;;;;;5056268;28;20115;-80
2021/06/22 01:57:05;;;;;;;24.67;12.05;;;563.20;2432.00;;;;;;5056114;28;20056;-78
2021/06/22 01:59:31;;;;;;;19.15;10.55;;;563.30;2432.00;;;;;;5055713;28;20029;-78
2021/06/22 02:01:57;;;;;;;24.83;11.27;;;563.30;2432.00;;;;;;5056355;28;20070;-77
2021/06/22 02:04:23;;;;;;;20.20;11.10;;;563.20;2432.00;;;;;;5056174;28;20139;-80
2021/06/22 02:06:49;;;;;;;23.58;11.45;;;563.20;2432.00;;;;;;5056109;28;20031;-80
2021/06/22 02:09:15;;;;;;;25.65;12.57;;;538.50;2406.40;;;;;;5056494;28;20020;-79
2021/06/22 02:11:40;;;;;;;23.25;11.73;;;538.50;2406.40;;;;;;5056154;28;20085;-79
2021/06/22 02:14:06;;;;;;;23.08;11.13;;;538.40;2406.40;;;;;;5056404;28;20491;-78
2021/06/22 02:16:33;;;;;;;18.42;10.27;;;538.50;2406.40;;;;;;5056450;28;20059;-79
2021/06/22 02:18:59;;;;;;;20.90;11.18;;;538.50;2406.40;;;;;;5056047;28;20467;-78
2021/06/22 02:21:26;;;;;;;22.23;11.43;;;538.50;2406.40;;;;;;5056189;28;20170;-80
2021/06/22 02:23:52;;;;;;;22.70;12.00;;;538.50;2406.40;;;;;;5074163;28;20059;-79
2021/06/22 02:26:17;;;;;;;18.50;10.55;;;538.20;2406.40;;;;;;5073837;28;20533;-80
2021/06/22 02:28:43;;;;;;;20.25;10.38;;;538.40;2406.40;;;;;;5055922;28;20016;-79
2021/06/22 02:31:09;;;;;;;19.50;11.13;;;538.30;2406.40;;;;;;5056114;28;20020;-79
2021/06/22 02:33:35;;;;;;;20.42;11.13;;;538.40;2406.40;;;;;;5073444;28;20043;-82
2021/06/22 02:36:01;;;;;;;19.23;11.80;;;538.40;2406.40;;;;;;5073637;28;20036;-78
2021/06/22 02:38:27;;;;;;;21.65;12.73;;;538.20;2406.40;;;;;;5074043;28;20024;-79
2021/06/22 02:40:53;;;;;;;21.30;11.63;;;538.20;2406.40;;;;;;5055478;28;20028;-78
2021/06/22 02:43:18;;;;;;;23.92;11.75;;;538.30;2406.40;;;;;;5055918;28;20028;-79
2021/06/22 02:45:44;;;;;;;24.95;11.98;;;538.20;2406.40;;;;;;5056084;28;20024;-78
2021/06/22 02:48:11;;;;;;;17.02;11.07;;;538.30;2406.40;;;;;;5055708;28;20131;-80
2021/06/22 02:50:39;;;;;;;24.58;13.02;;;538.20;2406.40;;;;;;5073883;28;20020;-78
2021/06/22 02:53:07;;;;;;;27.27;12.93;;;538.20;2406.40;;;;;;5055961;28;20025;-78
2021/06/22 02:55:33;;;;;;;21.80;11.73;;;537.90;2406.40;;;;;;5055499;28;20391;-78
2021/06/22 02:57:59;;;;;;;22.13;11.45;;;537.80;2406.40;;;;;;5055929;28;20047;-80
2021/06/22 03:00:27;;;;;;;22.17;10.38;;;537.90;2406.40;;;;;;5055776;28;20452;-78
2021/06/22 03:02:54;;;;;;;19.25;10.40;;;538.00;2406.40;;;;;;5055721;28;20490;-77
2021/06/22 03:05:20;;;;;;;18.92;10.75;;;538.10;2406.40;;;;;;5052238;28;20045;-78
2021/06/22 03:07:46;;;;;;;24.60;11.63;;;538.10;2406.40;;;;;;5051973;28;20026;-77
2021/06/22 03:10:14;;;;;;;28.02;11.43;;;538.20;2406.40;;;;;;5052265;28;20036;-78
2021/06/22 03:12:41;;;;;;;28.27;11.13;;;538.00;2406.40;;;;;;5052197;28;20119;-77
2021/06/22 03:15:09;;;;;;;19.35;11.70;;;538.00;2406.40;;;;;;5051921;28;20029;-77
2021/06/22 03:17:35;;;;;;;25.42;11.88;;;538.00;2406.40;;;;;;5052072;28;20017;-76
2021/06/22 03:20:07;;;;;;;22.88;11.07;;;538.00;2406.40;;;;;;5052222;28;20078;-77
2021/06/22 03:22:32;;;;;;;22.17;11.10;;;538.00;2406.40;;;;;;5051837;28;20357;-77
2021/06/22 03:24:58;;;;;;;22.08;11.40;;;538.00;2406.40;;;;;;5052078;28;20017;-77
2021/06/22 03:27:24;;;;;;;26.00;12.20;;;537.80;2406.40;;;;;;5052225;28;20017;-79
2021/06/22 03:29:50;;;;;;;20.92;13.88;;;537.70;2406.40;;;;;;5051751;28;20043;-77
2021/06/22 03:32:16;;;;;;;23.10;12.30;;;537.70;2406.40;;;;;;5051981;28;20037;-78
2021/06/22 03:34:42;;;;;;;28.75;12.00;;;537.80;2406.40;;;;;;5052063;28;20235;-78
2021/06/22 03:37:08;;;;;;;22.23;12.57;;;537.80;2406.40;;;;;;5051715;28;20025;-77
2021/06/22 03:39:35;;;;;;;23.23;11.25;;;537.80;2406.40;;;;;;5051997;28;20025;-78
2021/06/22 03:42:02;;;;;;;20.45;11.10;;;538.00;2406.40;;;;;;5051972;28;20112;-79
2021/06/22 03:44:28;;;;;;;22.73;11.65;;;538.00;2406.40;;;;;;5051593;28;20117;-77
2021/06/22 03:46:54;;;;;;;23.63;11.98;;;538.00;2406.40;;;;;;5052151;28;20123;-80
2021/06/22 03:49:19;;;;;;;27.35;13.35;;;538.00;2406.40;;;;;;5051876;28;20021;-79
2021/06/22 03:51:45;;;;;;;23.48;12.80;;;538.00;2406.40;;;;;;5053079;28;20404;-78
2021/06/22 03:54:11;;;;;;;18.85;10.32;;;537.90;2406.40;;;;;;5055643;28;20021;-78
2021/06/22 03:56:37;;;;;;;21.08;11.63;;;538.00;2406.40;;;;;;5055378;28;20071;-78
2021/06/22 03:59:03;;;;;;;28.23;11.70;;;538.20;2406.40;;;;;;5055507;28;20108;-78
2021/06/22 04:01:28;;;;;;;33.65;14.35;;;538.20;2406.40;;;;;;5055471;28;20025;-78
2021/06/22 04:03:54;;;;;;;28.48;13.73;;;538.30;2406.40;;;;;;5054946;28;20167;-78
2021/06/22 04:06:20;;;;;;;26.63;12.20;;;538.20;2406.40;;;;;;5055450;28;20028;-77
2021/06/22 04:08:46;;;;;;;25.67;12.77;;;538.40;2406.40;;;;;;5055472;28;20561;-78
2021/06/22 04:11:13;;;;;;;31.15;12.48;;;538.30;2406.40;;;;;;5055027;28;20021;-77
2021/06/22 04:13:39;;;;;;;26.90;12.55;;;538.20;2406.40;;;;;;5055340;28;20036;-78
2021/06/22 04:16:05;;;;;;;28.20;14.80;;;538.10;2406.40;;;;;;5055287;28;20352;-79
2021/06/22 04:18:32;;;;;;;25.90;12.93;;;538.10;2406.40;;;;;;5055004;28;20027;-79
2021/06/22 04:20:58;;;;;;;23.30;11.90;;;538.00;2406.40;;;;;;5055158;28;20017;-79
2021/06/22 04:23:24;;;;;;;26.48;12.18;;;538.20;2406.40;;;;;;5056148;28;20082;-79
2021/06/22 04:25:50;;;;;;;22.50;11.13;;;538.10;2406.40;;;;;;5054811;28;20150;-78
2021/06/22 04:28:17;;;;;;;24.08;11.35;;;538.10;2406.40;;;;;;5055099;28;20060;-78
2021/06/22 04:30:43;;;;;;;29.52;11.73;;;538.20;2406.40;;;;;;5054964;28;20036;-78
2021/06/22 04:33:09;;;;;;;23.35;13.80;;;538.20;2406.40;;;;;;5054563;28;20372;-79
2021/06/22 04:35:35;;;;;;;24.08;11.27;;;538.10;2406.40;;;;;;5054867;28;20021;-78
2021/06/22 04:38:03;;;;;;;24.73;11.40;;;538.00;2406.40;;;;;;5054782;28;20025;-79
2021/06/22 04:40:29;;;;;;;23.13;11.93;;;538.10;2406.40;;;;;;5055846;28;20021;-78
2021/06/22 04:42:55;;;;;;;29.40;12.68;;;538.00;2406.40;;;;;;5054773;28;20036;-79
2021/06/22 04:45:21;;;;;;;35.67;13.77;;;538.10;2406.40;;;;;;5054732;28;20017;-79
2021/06/22 04:47:47;;;;;;;31.77;13.68;;;538.10;2406.40;;;;;;5054371;28;20048;-79
2021/06/22 04:50:13;;;;;;;25.08;12.30;;;538.20;2406.40;;;;;;5054667;28;20441;-79
2021/06/22 04:52:39;;;;;;;28.70;12.80;;;538.40;2406.40;;;;;;5054223;28;20025;-79
2021/06/22 04:55:12;;;;;;;26.60;11.43;;;538.30;2406.40;;;;;;5054518;28;20112;-78
2021/06/22 04:57:45;;;;;;;25.27;12.27;;;538.30;2406.40;;;;;;5055853;28;20049;-79
2021/06/22 05:00:13;;;;;;;27.48;11.93;;;538.30;2406.40;;;;;;5055451;28;20021;-79
2021/06/22 05:02:43;;;;;;;23.77;11.35;;;538.40;2406.40;;;;;;5054382;28;20025;-78
2021/06/22 05:05:13;;;;;;;23.20;11.02;;;538.50;2406.40;;;;;;5073222;28;20443;-79
2021/06/22 05:07:40;;;;;;;30.40;12.25;;;538.50;2406.40;;;;;;5057195;28;20025;-78
2021/06/22 05:10:07;;;;;;;25.10;11.73;;;538.50;2406.40;;;;;;5075513;28;20039;-80
2021/06/22 05:12:33;;;;;;;24.20;10.07;;;563.20;2432.00;;;;;;5075350;28;20384;-79
2021/06/22 05:14:58;;;;;;;25.38;10.30;;;563.20;2432.00;;;;;;5057597;28;20016;-80
2021/06/22 05:17:24;;;;;;;25.00;10.48;;;563.40;2432.00;;;;;;5057340;28;20054;-80
2021/06/22 05:19:50;;;;;;;23.10;11.57;;;563.30;2432.00;;;;;;5057453;28;20359;-79
2021/06/22 05:22:16;;;;;;;27.02;10.63;;;563.40;2432.00;;;;;;5057357;28;20211;-80
2021/06/22 05:24:42;;;;;;;24.65;10.98;;;563.30;2432.00;;;;;;5075001;28;20017;-79
2021/06/22 05:27:08;;;;;;;33.10;11.93;;;563.30;2432.00;;;;;;5074956;28;20020;-80
2021/06/22 05:29:34;;;;;;;27.80;12.57;;;563.40;2432.00;;;;;;5057320;28;20477;-79
2021/06/22 05:32:00;;;;;;;28.88;13.32;;;563.50;2432.00;;;;;;5075002;28;20108;-80
2021/06/22 05:34:26;;;;;;;34.55;14.55;;;563.50;2432.00;;;;;;5075023;28;20070;-81
2021/06/22 05:36:52;;;;;;;31.92;13.15;;;563.60;2432.00;;;;;;5057147;28;20453;-80
2021/06/22 05:39:18;;;;;;;25.85;12.35;;;563.60;2432.00;;;;;;5056707;28;20020;-80
2021/06/22 05:41:45;;;;;;;31.52;13.32;;;563.60;2432.00;;;;;;5074448;28;20025;-79
2021/06/22 05:44:11;;;;;;;28.88;13.05;;;563.70;2432.00;;;;;;5056493;28;20132;-79
2021/06/22 05:46:37;;;;;;;33.15;14.40;;;563.70;2432.00;;;;;;5056235;28;20121;-79
2021/06/22 05:49:03;;;;;;;29.05;12.68;;;563.70;2432.00;;;;;;5056949;28;20459;-80
2021/06/22 05:51:28;;;;;;;26.30;12.18;;;563.90;2432.00;;;;;;5074693;28;20486;-79
2021/06/22 05:53:54;;;;;;;40.47;12.82;;;563.90;2432.00;;;;;;5055833;28;20070;-79
2021/06/22 05:56:20;;;;;;;22.48;11.70;;;564.00;2432.00;;;;;;5056258;28;20035;-80
2021/06/22 05:58:46;;;;;;;34.25;12.98;;;564.10;2432.00;;;;;;5074237;28;20023;-81
2021/06/22 06:01:11;;;;;;;34.38;13.07;;;588.80;2432.00;;;;;;5056269;28;20471;-78
2021/06/22 06:03:37;;;;;;;32.00;12.93;;;564.10;2432.00;;;;;;5056373;28;20051;-81
2021/06/22 06:06:04;;;;;;;28.98;12.13;;;588.90;2432.00;;;;;;5056521;28;20371;-79
2021/06/22 06:08:32;;;;;;;28.30;13.02;;;589.00;2432.00;;;;;;5056587;28;20027;-79
2021/06/22 06:10:59;;;;;;;30.45;12.40;;;589.00;2432.00;;;;;;5074399;28;20016;-79
2021/06/22 06:13:35;;;;;;;25.98;12.20;;;589.10;2432.00;;;;;;5056033;28;20024;-81
2021/06/22 06:16:03;;;;;;;26.92;11.25;;;589.20;2432.00;;;;;;5056301;28;20021;-80
2021/06/22 06:18:28;;;;;;;27.35;13.32;;;589.30;2432.00;;;;;;5056502;28;20329;-79
2021/06/22 06:20:56;;;;;;;25.27;12.25;;;589.30;2432.00;;;;;;5056066;28;20110;-79
2021/06/22 06:23:23;;;;;;;25.85;11.45;;;589.40;2432.00;;;;;;5074158;28;20166;-82
2021/06/22 06:25:49;;;;;;;33.67;12.00;;;589.40;2432.00;;;;;;5056156;28;20020;-80
2021/06/22 06:28:20;;;;;;;24.98;11.52;;;589.50;2432.00;;;;;;5055852;28;20027;-79
2021/06/22 06:30:46;;;;;;;20.13;12.60;;;589.70;2432.00;;;;;;5056440;28;20107;-79
2021/06/22 06:33:13;;;;;;;26.75;11.80;;;614.40;2432.00;;;;;;5056248;28;20733;-81
2021/06/22 06:35:40;;;;;;;25.52;11.70;;;614.50;2432.00;;;;;;5055846;28;20070;-79
2021/06/22 06:38:06;;;;;;;30.40;11.52;;;614.50;2432.00;;;;;;5074371;28;20071;-80
2021/06/22 06:40:32;;;;;;;28.92;12.38;;;614.70;2432.00;;;;;;5055990;28;20052;-78
2021/06/22 06:42:59;;;;;;;40.90;13.48;;;614.80;2432.00;;;;;;5056372;28;20063;-79
2021/06/22 06:45:25;;;;;;;27.63;12.18;;;614.90;2432.00;;;;;;5055911;28;20028;-80
2021/06/22 06:47:51;;;;;;;23.55;10.88;;;615.00;2432.00;;;;;;5055882;28;20020;-81
2021/06/22 06:50:17;;;;;;;27.00;11.82;;;615.20;2432.00;;;;;;5055988;28;20052;-80
2021/06/22 06:52:43;;;;;;;25.65;10.90;;;615.30;2432.00;;;;;;5056248;28;20033;-81
2021/06/22 06:55:28;;;;;;;30.50;11.45;;;615.20;2432.00;;;;;;5055575;28;20017;-80
2021/06/22 06:58:03;;;;;;;15.90;9.75;;;640.00;2432.00;;;;;;5056956;28;20025;-79
2021/06/22 07:00:31;;;;;;;23.83;10.63;;;640.10;2432.00;;;;;;5055989;28;20031;-78
2021/06/22 07:02:57;;;;;;;26.25;10.73;;;640.40;2432.00;;;;;;5073880;28;20112;-79
2021/06/22 07:05:23;;;;;;;22.00;10.10;;;640.00;2432.00;;;;;;5056127;28;20502;-81
2021/06/22 07:07:49;;;;;;;23.05;10.57;;;640.50;2432.00;;;;;;5056632;28;20111;-79
2021/06/22 07:10:15;;;;;;;18.13;10.55;;;640.70;2432.00;;;;;;5073848;28;20017;-80
2021/06/22 07:12:44;;;;;;;28.42;11.98;;;640.70;2432.00;;;;;;5056024;28;20028;-79
2021/06/22 07:15:11;;;;;;;37.65;12.57;;;665.60;2432.00;;;;;;5056451;28;20465;-80
2021/06/22 07:17:37;;;;;;;19.55;10.25;;;640.90;2432.00;;;;;;5056003;28;20017;-81
2021/06/22 07:20:04;;;;;;;25.33;11.20;;;640.90;2432.00;;;;;;5056121;28;20111;-80
2021/06/22 07:22:30;;;;;;;23.20;11.52;;;640.90;2432.00;;;;;;5055844;28;20416;-80
2021/06/22 07:24:56;;;;;;;20.90;10.60;;;665.70;2432.00;;;;;;5074194;28;20024;-80
2021/06/22 07:27:22;;;;;;;21.50;14.00;;;665.60;2432.00;;;;;;5077089;28;20391;-81
2021/06/22 07:29:48;;;;;;;34.83;18.38;;;665.90;2432.00;;;;;;5059578;28;20435;-80
2021/06/22 07:32:14;;;;;;;35.42;18.02;;;666.00;2432.00;;;;;;5063113;28;20028;-78
2021/06/22 07:34:40;;;;;;;24.73;14.38;;;666.10;2432.00;;;;;;5069273;28;20028;-80
2021/06/22 07:37:05;;;;;;;32.03;13.45;;;666.30;2432.00;;;;;;5053404;28;20115;-76
2021/06/22 07:39:31;;;;;;;30.70;13.20;;;666.40;2432.00;;;;;;5056523;28;20025;-78
2021/06/22 07:41:57;;;;;;;21.42;12.23;;;691.30;2432.00;;;;;;5053543;28;20025;-76
2021/06/22 07:44:23;;;;;;;21.60;11.05;;;691.50;2432.00;;;;;;5059077;28;20410;-76
2021/06/22 07:46:49;;;;;;;23.70;10.27;;;691.70;2432.00;;;;;;5059316;28;20406;-77
2021/06/22 07:49:15;;;;;;;23.70;10.63;;;691.80;2432.00;;;;;;5059611;28;20112;-75
2021/06/22 07:51:40;;;;;;;20.98;11.18;;;691.90;2432.00;;;;;;5058844;28;20017;-76
2021/06/22 07:54:06;;;;;;;24.85;12.10;;;691.70;2432.00;;;;;;5050290;28;20024;-76
2021/06/22 07:56:32;;;;;;;25.17;11.75;;;716.80;2432.00;;;;;;5058534;28;20371;-79
2021/06/22 07:58:58;;;;;;;26.95;11.18;;;692.10;2432.00;;;;;;5058598;28;20069;-76
2021/06/22 08:01:25;;;;;;;26.25;9.88;;;716.90;2432.00;;;;;;5058814;28;20025;-76
2021/06/22 08:03:51;;;;;;;23.13;12.57;;;716.90;2432.00;;;;;;5072978;28;20112;-76
2021/06/22 08:06:17;;;;;;;31.50;12.32;;;717.20;2432.00;;;;;;5076419;28;20444;-77
2021/06/22 08:08:43;;;;;;;24.27;10.52;;;717.20;2432.00;;;;;;5076650;28;20027;-76
2021/06/22 08:11:09;;;;;;;24.42;10.45;;;717.20;2432.00;;;;;;5067585;28;20104;-76
2021/06/22 08:13:35;;;;;;;24.30;10.52;;;717.10;2432.00;;;;;;5046821;28;20476;-77
2021/06/22 08:16:01;;;;;;;29.30;12.70;;;717.20;2432.00;;;;;;5047232;28;20016;-77
2021/06/22 08:18:28;;;;;;;31.48;13.27;;;717.40;2432.00;;;;;;5049076;28;20020;-77
2021/06/22 08:20:54;;;;;;;32.92;12.52;;;717.70;2432.00;;;;;;5047771;28;20360;-77
2021/06/22 08:23:21;;;;;;;23.55;11.80;;;717.70;2432.00;;;;;;5047300;28;20028;-76
2021/06/22 08:25:47;;;;;;;26.35;14.32;;;742.40;2432.00;;;;;;5066953;28;20021;-78
2021/06/22 08:28:14;;;;;;;32.47;11.80;;;742.70;2432.00;;;;;;5038153;28;20033;-79
2021/06/22 08:30:40;;;;;;;24.73;11.85;;;742.80;2432.00;;;;;;5056448;28;20027;-80
2021/06/22 08:33:07;;;;;;;31.10;16.63;;;742.90;2432.00;;;;;;5052074;28;20032;-78
2021/06/22 08:35:36;;;;;;;25.52;11.18;;;742.90;2432.00;;;;;;5058176;28;20424;-79
2021/06/22 08:38:03;;;;;;;31.75;12.18;;;743.00;2432.00;;;;;;5057594;28;20028;-78
2021/06/22 08:40:30;;;;;;;22.77;10.38;;;743.20;2432.00;;;;;;5057811;28;20074;-78
2021/06/22 08:42:57;;;;;;;28.48;11.90;;;768.60;2432.00;;;;;;5058026;28;20029;-78
2021/06/22 08:45:23;;;;;;;28.60;11.52;;;768.00;2432.00;;;;;;5049015;28;20452;-78
2021/06/22 08:47:49;;;;;;;24.17;10.05;;;768.10;2432.00;;;;;;5046597;28;20463;-77
2021/06/22 08:50:16;;;;;;;23.20;9.90;;;768.20;2432.00;;;;;;5037986;28;20029;-78
2021/06/22 08:52:43;;;;;;;25.00;9.80;;;768.20;2432.00;;;;;;5037867;28;20175;-79
2021/06/22 08:55:30;;;;;;;28.02;12.23;;;743.30;2432.00;;;;;;5037591;28;20032;-77
2021/06/22 08:58:03;;;;;;;26.85;9.88;;;743.30;2432.00;;;;;;5037625;28;20049;-79
2021/06/22 09:00:31;;;;;;;27.17;11.13;;;768.10;2432.00;;;;;;5047947;28;20027;-77
2021/06/22 09:03:26;;;;;;;24.90;10.63;;;768.20;2432.00;;;;;;5075601;28;20059;-78
2021/06/22 09:05:58;;;;;;;22.65;9.35;;;768.40;2432.00;;;;;;5057881;28;20076;-82
2021/06/22 09:08:33;;;;;;;28.33;11.57;;;768.50;2432.00;;;;;;5058077;28;20024;-83
2021/06/22 09:11:08;;;;;;;31.25;12.45;;;768.70;2432.00;;;;;;5058664;28;20021;-82
2021/06/22 09:13:35;;;;;;;29.42;9.80;;;793.60;2432.00;;;;;;5075711;28;20115;-82
2021/06/22 09:16:01;;;;;;;24.85;10.20;;;793.70;2432.00;;;;;;5057470;28;20039;-82
2021/06/22 09:18:28;;;;;;;26.35;10.45;;;793.90;2432.00;;;;;;5057976;28;20020;-79
2021/06/22 09:21:18;;;;;;;20.48;8.48;;;794.10;2432.00;;;;;;5057771;28;20050;-79
2021/06/22 09:23:45;;;;;;;27.08;11.48;;;794.10;2432.00;;;;;;5064596;28;20054;-80
2021/06/22 09:26:13;;;;;;;25.08;11.50;;;794.30;2432.00;;;;;;5072715;28;20020;-80
2021/06/22 09:28:40;;;;;;;29.27;9.43;;;794.30;2432.00;;;;;;5072672;28;20029;-78
2021/06/22 09:31:08;;;;;;;26.70;11.38;;;794.50;2432.00;;;;;;5074487;28;20049;-78
2021/06/22 09:33:51;;;;;;;24.48;9.90;;;794.50;2432.00;;;;;;5074901;28;20599;-77
2021/06/22 09:36:31;;;;;;;25.45;8.25;;;794.20;2432.00;;;;;;5077695;28;20054;-79
2021/06/22 09:39:05;;;;;;;29.42;11.10;;;794.20;2432.00;;;;;;5079679;28;20092;-79
2021/06/22 09:41:37;;;;;;;30.95;10.75;;;794.20;2432.00;;;;;;5080187;28;20051;-79
2021/06/22 09:44:08;;;;;;;30.50;12.48;;;794.50;2432.00;;;;;;5079027;28;20183;-78
2021/06/22 09:46:45;;;;;;;28.50;11.43;;;819.40;2432.00;;;;;;5097402;28;20029;-78
2021/06/22 09:49:13;;;;;;;29.40;9.90;;;819.50;2432.00;;;;;;5078253;28;20349;-79
2021/06/22 09:52:03;;;;;;;28.30;10.18;;;819.20;2432.00;;;;;;5075857;28;20478;-80
2021/06/22 09:54:29;;;;;;;27.88;11.75;;;819.30;2432.00;;;;;;5074223;28;20016;-78
2021/06/22 09:57:19;;;;;;;29.50;9.40;;;819.60;2432.00;;;;;;5074137;28;20013;-79
2021/06/22 09:59:56;;;;;;;34.83;10.55;;;819.80;2432.00;;;;;;5079040;28;20020;-78
2021/06/22 10:02:23;;;;;;;30.38;9.45;;;820.00;2432.00;;;;;;5075598;28;20089;-82
2021/06/22 10:04:54;;;;;;;31.38;10.00;;;820.10;2432.00;;;;;;5055560;28;20204;-77
2021/06/22 10:07:23;;;;;;;;;;;845.00;2380.80;;;;;;5076635;28;20036;-79
2021/06/22 10:10:05;;;;;;;28.42;12.57;;;845.10;2380.80;;;;;;5074543;28;19932;-79
2021/06/22 10:12:32;;;;;;;23.67;10.07;;;845.20;2406.40;;;;;;5052277;28;20025;-81
2021/06/22 10:15:00;;;;;;;30.95;10.82;;;845.20;2355.20;;;;;;5057031;28;20029;-81
2021/06/22 10:17:29;;;;;;;40.92;16.02;;;844.80;2380.80;;;;;;5051209;28;20376;-81
2021/06/22 10:20:00;;;;;;;32.38;11.68;;;845.30;2380.80;;;;;;5054623;28;20092;-80
2021/06/22 10:22:32;;;;;;;30.63;15.07;;;845.20;2329.60;;;;;;5056636;28;20029;-79
2021/06/22 10:25:00;;;;;;;34.08;15.60;;;845.50;2355.20;;;;;;5055541;28;20070;-83
2021/06/22 10:27:27;;;;;;;27.67;10.18;;;845.70;2329.60;;;;;;5055418;28;20017;-82
2021/06/22 10:29:55;;;;;;;36.08;12.50;;;845.70;2304.00;;;;;;5055045;28;20274;-83
2021/06/22 10:32:23;;;;;;;29.30;10.07;;;870.50;2355.20;;;;;;5053738;28;20051;-80
2021/06/22 10:34:55;;;;;;;20.20;8.75;;;870.50;2252.80;;;;;;5054232;28;20079;-80
2021/06/22 10:37:33;;;;;;;27.13;11.98;;;845.70;2252.80;;;;;;5054488;28;20477;-80
2021/06/22 10:40:20;;;;;;;27.00;11.23;;;870.50;2278.40;;;;;;5053822;28;20494;-80
2021/06/22 10:43:01;;;;;;;37.38;15.70;;;870.70;2278.40;;;;;;5058497;28;20107;-80
2021/06/22 10:45:27;;;;;;;27.52;10.70;;;870.90;2176.00;;;;;;5059389;28;20028;-81
2021/06/22 10:47:59;;;;;;;29.02;9.85;;;870.90;2201.60;;;;;;5052979;28;20029;-81
2021/06/22 10:50:31;;;;;;;30.63;11.52;;;870.90;2124.80;;;;;;5054468;28;20067;-80
2021/06/22 10:53:02;;;;;;;32.03;13.48;;;871.10;2099.20;;;;;;5053227;28;20025;-80
2021/06/22 10:55:28;;;;;;;43.43;10.93;;;871.20;2048.00;;;;;;5053222;28;20025;-81
2021/06/22 10:58:10;;;;;;;29.85;9.07;;;871.20;2048.00;;;;;;5053190;28;20021;-82
2021/06/22 11:00:51;;;;;;;50.80;10.35;;;871.20;2022.40;;;;;;5054212;28;20056;-82
2021/06/22 11:03:23;;;;;;;36.10;9.55;;;870.80;2022.40;;;;;;5057052;28;20021;-83
2021/06/22 11:06:03;;;;;;;28.20;9.38;;;871.00;1996.80;;;;;;5058951;28;20024;-81
2021/06/22 11:08:34;;;;;;;36.80;10.93;;;871.20;1971.20;;;;;;5075401;28;20025;-81
2021/06/22 11:11:00;;;;;;;47.88;10.48;;;871.10;1971.20;;;;;;5057516;28;20031;-82
2021/06/22 11:13:59;;;;;;;41.88;11.15;;;871.10;1996.80;;;;;;5057670;28;20029;-82
2021/06/22 11:16:26;;;;;;;26.95;9.02;;;871.20;2022.40;;;;;;5016984;28;20035;-81
2021/06/22 11:18:55;;;;;;;26.83;8.27;;;896.10;2022.40;;;;;;5058216;28;20360;-81
2021/06/22 11:21:31;;;;;;;29.30;10.45;;;871.10;1996.80;;;;;;5059847;28;20020;-80
2021/06/22 11:24:03;;;;;;;46.72;15.77;;;896.10;2022.40;;;;;;5058391;28;20035;-79
2021/06/22 11:26:31;;;;;;;30.75;9.90;;;896.30;1996.80;;;;;;5039441;28;20021;-79
2021/06/22 11:29:00;;;;;;;32.47;10.32;;;896.40;2022.40;;;;;;5036899;28;20051;-78
2021/06/22 11:31:35;;;;;;;29.77;11.60;;;896.70;1996.80;;;;;;5054934;28;20022;-78
2021/06/22 11:34:29;;;;;;;27.58;9.60;;;896.90;1971.20;;;;;;5039335;28;20027;-78
2021/06/22 11:36:57;;;;;;;26.02;9.88;;;921.60;1971.20;;;;;;5055159;28;20100;-79
2021/06/22 11:39:24;;;;;;;30.42;9.50;;;921.70;1996.80;;;;;;5053510;28;20032;-78
2021/06/22 11:42:08;;;;;;;20.33;8.52;;;921.70;1971.20;;;;;;5054187;28;20021;-78
2021/06/22 11:44:35;;;;;;;37.90;10.65;;;921.70;1945.60;;;;;;5042071;28;20028;-82
2021/06/22 11:47:03;;;;;;;25.88;12.55;;;896.30;1971.20;;;;;;5047244;28;20111;-82
2021/06/22 11:49:48;;;;;;;28.52;10.18;;;896.50;1971.20;;;;;;5064399;28;20021;-80
2021/06/22 11:52:20;;;;;;;29.67;11.30;;;921.60;1971.20;;;;;;5063255;28;20033;-80
2021/06/22 11:54:50;;;;;;;;;;;921.90;1945.60;;;;;;5042345;28;20025;-81
2021/06/22 11:57:27;;;;;;;38.25;12.63;;;922.20;1894.40;;;;;;5046894;28;19923;-81
2021/06/22 11:59:54;;;;;;;29.30;10.18;;;922.30;1920.00;;;;;;5045055;28;20482;-81
2021/06/22 12:02:20;;;;;;;29.23;9.10;;;922.50;1920.00;;;;;;5046123;28;20044;-82
2021/06/22 12:04:48;;;;;;;32.47;9.30;;;922.30;1868.80;;;;;;5043421;28;20041;-80
2021/06/22 12:07:14;;;;;;;25.80;8.93;;;922.00;1894.40;;;;;;5036332;28;20024;-81